Time;durP1;ratioP1;P1;durP2;ratioP2;P2;SDS_P1;SDS_P2;PMS_P1;PMS_P2;Temp;Humidity;BMP_temperature;BMP_pressure;BME280_temperature;BME280_humidity;BME280_pressure;Samples;Min_cycle;Max_cycle;Signal;HPM_P1;HPM_P2
2020/12/27 00:00:49;;;;;;;6.38;3.60;;;;;;;2.21;71.76;100227.47;5029522;28;20469;-85
2020/12/27 00:03:16;;;;;;;6.28;3.55;;;;;;;2.15;71.61;100215.38;5043212;28;20128;-85
2020/12/27 00:05:46;;;;;;;6.40;3.58;;;;;;;2.15;71.03;100214.50;5029023;28;20072;-83
2020/12/27 00:08:12;;;;;;;7.47;3.42;;;;;;;2.15;74.45;100215.38;5046676;28;20040;-84
2020/12/27 00:10:39;;;;;;;5.25;2.90;;;;;;;2.29;72.04;100191.63;5051503;28;20169;-83
2020/12/27 00:13:05;;;;;;;6.63;3.40;;;;;;;2.34;73.06;100180.22;5034778;28;20179;-84
2020/12/27 00:15:32;;;;;;;5.70;2.90;;;;;;;2.33;70.58;100167.19;5054518;28;20080;-85
2020/12/27 00:17:59;;;;;;;4.28;2.85;;;;;;;2.26;71.00;100174.25;5052678;28;20075;-83
2020/12/27 00:20:27;;;;;;;6.50;3.05;;;;;;;2.32;73.34;100166.31;5049900;28;20139;-84
2020/12/27 00:22:55;;;;;;;4.85;2.60;;;;;;;2.29;69.87;100166.38;5048915;28;20102;-84
2020/12/27 00:25:21;;;;;;;5.25;2.85;;;;;;;2.19;69.84;100154.38;5057610;28;20049;-86
2020/12/27 00:27:47;;;;;;;6.13;3.40;;;;;;;2.15;70.35;100162.25;5057894;28;20079;-87
2020/12/27 00:30:14;;;;;;;7.32;3.33;;;;;;;2.09;70.18;100144.94;5043583;28;20041;-87
2020/12/27 00:32:40;;;;;;;5.93;3.08;;;;;;;2.04;70.75;100142.41;5069612;28;20065;-85
2020/12/27 00:35:06;;;;;;;5.68;2.90;;;;;;;2.00;70.76;100145.09;5066707;28;20050;-84
2020/12/27 00:37:33;;;;;;;4.25;2.88;;;;;;;1.96;70.49;100131.22;5058292;28;20060;-84
2020/12/27 00:39:59;;;;;;;6.22;3.42;;;;;;;1.93;70.95;100131.25;5054802;28;20072;-86
2020/12/27 00:42:26;;;;;;;6.68;3.35;;;;;;;1.95;71.21;100115.56;5037355;28;20419;-84
2020/12/27 00:44:54;;;;;;;7.80;3.63;;;;;;;1.92;71.49;100113.00;5057101;28;20482;-85
2020/12/27 00:47:22;;;;;;;6.45;3.78;;;;;;;1.92;71.70;100100.81;5055659;28;20153;-86
2020/12/27 00:49:48;;;;;;;6.05;3.72;;;;;;;1.90;70.81;100086.91;5052637;28;20128;-84
2020/12/27 00:52:15;;;;;;;5.13;3.63;;;;;;;1.91;71.35;100079.94;5051793;28;20124;-85
2020/12/27 00:54:42;;;;;;;8.30;3.40;;;;;;;1.90;71.16;100070.38;5054916;28;20536;-84
2020/12/27 00:57:08;;;;;;;6.10;3.50;;;;;;;1.85;71.04;100070.50;5050710;28;20054;-85
2020/12/27 00:59:36;;;;;;;5.45;3.58;;;;;;;1.85;70.67;100048.75;5065618;28;20063;-84
2020/12/27 01:02:02;;;;;;;6.22;3.55;;;;;;;1.81;71.04;100049.66;5064843;28;20051;-85
2020/12/27 01:04:29;;;;;;;5.72;3.67;;;;;;;1.77;72.00;100039.28;5057228;28;20353;-84
2020/12/27 01:06:58;;;;;;;6.95;4.00;;;;;;;1.74;71.63;100036.72;5051441;28;20069;-86
2020/12/27 01:09:25;;;;;;;6.13;3.88;;;;;;;1.74;71.98;100034.09;5046983;28;20167;-84
2020/12/27 01:11:51;;;;;;;5.95;3.80;;;;;;;1.75;71.56;100022.78;5044120;28;20073;-85
2020/12/27 01:14:18;;;;;;;4.88;3.45;;;;;;;1.78;71.78;100021.88;5048843;28;20426;-83
2020/12/27 01:16:49;;;;;;;6.85;4.00;;;;;;;1.76;71.58;100015.81;5051498;28;20047;-84
2020/12/27 01:19:18;;;;;;;6.78;3.97;;;;;;;1.79;72.19;100020.97;5051005;28;20080;-83
2020/12/27 01:21:45;;;;;;;7.28;4.18;;;;;;;1.82;71.86;100007.03;5044578;28;20132;-83
2020/12/27 01:24:11;;;;;;;6.43;3.90;;;;;;;1.82;70.95;100002.66;5043622;28;20108;-84
2020/12/27 01:26:37;;;;;;;6.25;3.97;;;;;;;1.82;72.05;99991.34;5046876;28;20152;-83
2020/12/27 01:29:05;;;;;;;10.40;4.50;;;;;;;1.83;71.77;99983.50;5042681;28;20846;-83
2020/12/27 01:31:32;;;;;;;6.82;4.53;;;;;;;1.83;71.97;99974.81;5051504;28;20470;-85
2020/12/27 01:33:58;;;;;;;7.28;4.38;;;;;;;1.86;72.22;99969.53;5044602;28;20142;-85
2020/12/27 01:36:31;;;;;;;8.35;5.03;;;;;;;1.95;72.57;99957.16;5043311;28;20140;-84
2020/12/27 01:38:59;;;;;;;7.97;5.05;;;;;;;1.91;71.92;99954.63;5050615;28;20055;-84
2020/12/27 01:41:26;;;;;;;8.85;5.60;;;;;;;1.84;72.63;99953.91;5047997;28;20080;-85
2020/12/27 01:44:04;;;;;;;9.32;5.80;;;;;;;1.84;72.80;99937.38;5031676;28;20128;-84
2020/12/27 01:46:33;;;;;;;9.32;5.60;;;;;;;1.86;72.66;99930.38;5048772;28;20107;-83
2020/12/27 01:49:00;;;;;;;8.60;5.45;;;;;;;1.79;73.15;99924.38;5041909;28;20108;-85
2020/12/27 01:51:26;;;;;;;9.05;5.65;;;;;;;1.65;73.15;99903.78;5042289;28;20128;-83
2020/12/27 01:53:53;;;;;;;7.72;5.28;;;;;;;1.62;73.76;99897.75;5046591;28;20049;-84
2020/12/27 01:56:25;;;;;;;9.73;5.97;;;;;;;1.63;73.71;99897.72;5040814;28;20055;-84
2020/12/27 01:58:57;;;;;;;9.93;5.43;;;;;;;1.62;73.62;99897.75;5045274;28;20067;-84
2020/12/27 02:04:04;;;;;;;9.73;5.32;;;;;;;1.51;73.77;99877.06;4996187;28;20050;-81
2020/12/27 02:06:31;;;;;;;8.35;5.18;;;;;;;1.53;73.50;99877.91;4998050;28;20056;-81
2020/12/27 02:08:59;;;;;;;10.98;5.88;;;;;;;1.52;73.64;99868.34;4996753;28;20137;-81
2020/12/27 02:11:26;;;;;;;7.55;5.25;;;;;;;1.57;73.03;99855.25;4996352;28;20050;-76
2020/12/27 02:13:59;;;;;;;8.40;5.28;;;;;;;1.56;73.43;99854.38;4996290;28;20066;-78
2020/12/27 02:16:29;;;;;;;9.60;5.35;;;;;;;1.58;72.73;99854.31;4995916;28;20073;-77
2020/12/27 02:18:57;;;;;;;9.75;5.55;;;;;;;1.54;73.72;99861.38;4999639;28;20053;-79
2020/12/27 02:21:23;;;;;;;9.40;5.28;;;;;;;1.50;73.23;99854.47;4998521;28;20390;-77
2020/12/27 02:23:57;;;;;;;9.18;5.63;;;;;;;1.56;72.73;99862.19;4997639;28;20453;-77
2020/12/27 02:26:25;;;;;;;9.88;5.38;;;;;;;1.54;73.12;99850.06;4995450;28;20058;-77
2020/12/27 02:28:52;;;;;;;11.40;5.30;;;;;;;1.56;73.20;99853.50;4995325;28;20504;-77
2020/12/27 02:31:28;;;;;;;9.07;5.30;;;;;;;1.57;73.15;99850.88;4995160;28;20085;-77
2020/12/27 02:33:57;;;;;;;10.90;5.82;;;;;;;1.60;73.05;99853.41;4996537;28;20050;-79
2020/12/27 02:36:23;;;;;;;7.78;5.07;;;;;;;1.65;73.16;99848.97;4994362;28;20500;-79
2020/12/27 02:38:50;;;;;;;8.60;4.95;;;;;;;1.64;72.28;99831.59;5001669;28;20511;-79
2020/12/27 02:41:23;;;;;;;11.65;5.93;;;;;;;1.63;72.94;99824.66;4995391;28;20062;-78
2020/12/27 02:43:49;;;;;;;9.63;5.72;;;;;;;1.64;72.68;99825.50;5010141;28;20056;-77
2020/12/27 02:46:25;;;;;;;8.32;5.10;;;;;;;1.63;73.00;99829.00;5006308;28;20061;-77
2020/12/27 02:48:52;;;;;;;10.43;5.60;;;;;;;1.60;72.91;99814.25;4990727;28;20046;-77
2020/12/27 02:51:19;;;;;;;9.57;5.75;;;;;;;1.53;73.32;99817.91;4987727;28;20046;-76
2020/12/27 02:53:48;;;;;;;8.60;5.78;;;;;;;1.53;73.04;99806.59;4987854;28;20046;-77
2020/12/27 02:56:26;;;;;;;8.13;5.53;;;;;;;1.48;73.59;99791.03;4970873;28;20051;-78
2020/12/27 02:58:55;;;;;;;9.15;6.00;;;;;;;1.44;73.88;99781.53;4986670;28;20053;-80
2020/12/27 03:01:21;;;;;;;10.02;6.20;;;;;;;1.35;73.77;99758.25;4991475;28;20052;-78
2020/12/27 03:03:48;;;;;;;9.98;5.78;;;;;;;1.31;74.09;99746.16;4985051;28;20437;-78
2020/12/27 03:06:26;;;;;;;10.38;6.25;;;;;;;1.26;74.33;99738.41;4995638;28;20055;-77
2020/12/27 03:08:55;;;;;;;13.15;6.28;;;;;;;1.22;74.65;99733.31;4991997;28;20413;-77
2020/12/27 03:11:25;;;;;;;9.63;5.95;;;;;;;1.19;74.70;99730.75;4987040;28;20497;-79
2020/12/27 03:13:53;;;;;;;11.83;6.13;;;;;;;1.13;75.26;99720.44;4994539;28;20101;-77
2020/12/27 03:16:20;;;;;;;8.57;6.07;;;;;;;1.03;75.34;99702.38;4993189;28;20070;-77
2020/12/27 03:18:46;;;;;;;12.13;6.47;;;;;;;0.99;75.65;99692.88;4989509;28;20046;-78
2020/12/27 03:21:14;;;;;;;12.85;6.75;;;;;;;0.97;76.06;99685.97;4994760;28;20050;-79
2020/12/27 03:23:41;;;;;;;10.80;5.88;;;;;;;0.93;76.26;99674.78;4996377;28;20049;-81
2020/12/27 03:26:07;;;;;;;10.68;6.18;;;;;;;0.94;76.23;99660.84;5001179;28;20054;-78
2020/12/27 03:28:33;;;;;;;10.10;6.20;;;;;;;0.94;76.29;99663.47;4994313;28;20412;-78
2020/12/27 03:31:00;;;;;;;11.25;5.85;;;;;;;0.98;76.33;99662.47;4996927;28;20049;-78
2020/12/27 03:33:26;;;;;;;9.63;6.03;;;;;;;0.98;75.87;99661.63;4992711;28;20074;-78
2020/12/27 03:35:53;;;;;;;8.98;5.88;;;;;;;0.96;76.10;99669.47;5004141;28;20505;-82
2020/12/27 03:38:19;;;;;;;9.20;6.22;;;;;;;0.90;76.63;99655.72;5000396;28;20115;-77
2020/12/27 03:40:46;;;;;;;10.88;6.22;;;;;;;0.91;76.63;99670.47;5009875;28;20046;-77
2020/12/27 03:43:13;;;;;;;10.90;6.50;;;;;;;0.89;76.56;99667.03;5014454;28;20051;-77
2020/12/27 03:45:41;;;;;;;10.93;6.05;;;;;;;0.92;76.69;99657.41;5009651;28;20085;-77
2020/12/27 03:48:08;;;;;;;10.55;6.90;;;;;;;0.89;76.25;99652.25;5009160;28;20046;-81
2020/12/27 03:50:34;;;;;;;10.00;6.05;;;;;;;0.86;77.03;99649.69;5006488;28;20050;-78
2020/12/27 03:53:01;;;;;;;10.02;6.32;;;;;;;0.82;76.82;99637.59;4992464;28;20396;-77
2020/12/27 03:55:27;;;;;;;12.55;6.65;;;;;;;0.84;77.26;99630.63;4992953;28;20571;-77
2020/12/27 03:57:54;;;;;;;16.38;6.38;;;;;;;0.83;77.27;99623.69;4984985;28;20068;-77
2020/12/27 04:00:21;;;;;;;13.05;6.32;;;;;;;0.84;77.16;99622.81;4997578;28;20592;-78
2020/12/27 04:02:47;;;;;;;9.25;6.55;;;;;;;0.84;76.54;99617.59;4998987;28;20076;-78
2020/12/27 04:05:14;;;;;;;10.00;6.22;;;;;;;0.84;76.80;99612.38;4997294;28;20054;-79
2020/12/27 04:07:40;;;;;;;12.27;6.97;;;;;;;0.85;76.36;99616.69;4968142;28;20048;-78
2020/12/27 04:10:15;;;;;;;9.75;6.05;;;;;;;0.90;76.69;99608.81;4991545;28;20038;-78
2020/12/27 04:12:42;;;;;;;11.38;6.63;;;;;;;0.84;76.72;99591.53;4990758;28;20106;-77
2020/12/27 04:15:08;;;;;;;12.65;6.38;;;;;;;0.88;76.45;99587.13;4987505;28;20047;-76
2020/12/27 04:17:35;;;;;;;13.45;6.75;;;;;;;0.88;76.50;99569.72;4994945;28;20042;-79
2020/12/27 04:20:03;;;;;;;12.00;6.88;;;;;;;0.88;76.53;99566.28;4993011;28;20347;-78
2020/12/27 04:22:29;;;;;;;11.45;6.30;;;;;;;0.92;76.16;99557.50;4986673;28;20050;-77
2020/12/27 04:24:56;;;;;;;13.07;6.28;;;;;;;0.86;76.77;99557.63;4999604;28;20046;-76
2020/12/27 04:27:22;;;;;;;11.90;6.55;;;;;;;0.84;76.20;99549.81;4995874;28;20429;-78
2020/12/27 04:29:48;;;;;;;10.13;5.78;;;;;;;0.88;76.51;99546.28;4991555;28;20046;-78
2020/12/27 04:32:15;;;;;;;11.63;5.63;;;;;;;0.91;76.81;99541.00;4992159;28;20615;-76
2020/12/27 04:34:41;;;;;;;11.00;6.30;;;;;;;0.91;76.17;99525.38;4999583;28;20042;-77
2020/12/27 04:37:22;;;;;;;11.48;5.95;;;;;;;0.92;75.82;99511.44;4988856;28;20053;-79
2020/12/27 04:39:48;;;;;;;12.20;6.45;;;;;;;0.93;75.52;99507.94;4994393;28;20158;-77
2020/12/27 04:42:14;;;;;;;9.18;5.90;;;;;;;0.92;75.63;99501.00;4991321;28;20137;-79
2020/12/27 04:44:42;;;;;;;8.82;5.85;;;;;;;0.92;75.25;99490.59;4988081;28;20057;-80
2020/12/27 04:47:09;;;;;;;9.60;5.88;;;;;;;0.98;75.59;99481.75;4993176;28;20049;-77
2020/12/27 04:49:35;;;;;;;12.40;6.00;;;;;;;1.00;74.70;99478.22;4980583;28;20493;-78
2020/12/27 04:52:03;;;;;;;11.75;6.25;;;;;;;0.95;74.90;99453.13;4987158;28;20133;-76
2020/12/27 04:54:30;;;;;;;11.98;5.90;;;;;;;0.96;75.20;99452.25;4995852;28;20089;-76
2020/12/27 04:56:57;;;;;;;11.93;5.88;;;;;;;0.96;75.07;99441.81;4998223;28;20057;-78
2020/12/27 04:59:23;;;;;;;10.65;6.32;;;;;;;0.94;74.60;99421.03;5005373;28;20060;-77
2020/12/27 05:01:51;;;;;;;9.85;5.78;;;;;;;0.94;74.71;99418.44;4996725;28;20143;-78
2020/12/27 05:04:24;;;;;;;9.63;6.30;;;;;;;0.95;74.76;99419.25;4998113;28;20048;-77
2020/12/27 05:06:53;;;;;;;12.13;5.55;;;;;;;0.90;74.69;99414.19;4999852;28;20046;-78
2020/12/27 05:09:26;;;;;;;13.90;5.68;;;;;;;0.93;74.77;99403.69;4990968;28;20070;-77
2020/12/27 05:11:54;;;;;;;9.90;5.82;;;;;;;0.94;75.16;99391.50;4993729;28;20046;-78
2020/12/27 05:14:29;;;;;;;10.32;5.88;;;;;;;0.95;74.17;99398.41;4992057;28;20112;-79
2020/12/27 05:16:58;;;;;;;11.30;5.60;;;;;;;0.96;74.87;99395.75;4993521;28;20393;-78
2020/12/27 05:19:25;;;;;;;10.23;5.50;;;;;;;0.97;74.44;99392.25;4989315;28;20105;-78
2020/12/27 05:21:54;;;;;;;7.68;5.28;;;;;;;1.02;74.24;99382.59;4996840;28;20050;-78
2020/12/27 05:24:21;;;;;;;12.52;6.72;;;;;;;1.01;74.29;99375.66;4993098;28;20066;-78
2020/12/27 05:26:50;;;;;;;9.65;4.97;;;;;;;1.02;74.38;99392.16;5003302;28;20054;-78
2020/12/27 05:29:31;;;;;;;9.98;5.05;;;;;;;0.99;74.89;99371.38;4987975;28;20046;-79
2020/12/27 05:31:58;;;;;;;7.35;5.18;;;;;;;1.01;74.02;99362.63;5002828;28;20110;-77
2020/12/27 05:34:27;;;;;;;8.73;5.82;;;;;;;1.00;74.25;99347.88;4981979;28;20053;-78
2020/12/27 05:36:56;;;;;;;9.55;5.43;;;;;;;1.03;74.02;99341.75;4996950;28;20057;-79
2020/12/27 05:39:23;;;;;;;7.90;5.35;;;;;;;1.04;74.54;99336.50;5005658;28;20065;-80
2020/12/27 05:41:50;;;;;;;8.60;5.43;;;;;;;1.04;74.15;99333.88;5008050;28;20073;-79
2020/12/27 05:44:19;;;;;;;9.13;5.82;;;;;;;1.05;74.03;99333.00;4999102;28;20058;-80
2020/12/27 05:46:46;;;;;;;8.07;5.00;;;;;;;1.10;74.30;99327.66;4982173;28;20396;-79
2020/12/27 05:49:13;;;;;;;8.55;4.75;;;;;;;1.13;74.09;99335.38;4989505;28;21000;-78
2020/12/27 05:51:51;;;;;;;8.85;5.47;;;;;;;1.15;73.31;99327.53;4998928;28;20126;-81
2020/12/27 05:54:33;;;;;;;11.25;5.50;;;;;;;1.15;73.64;99310.13;5005863;28;20081;-83
2020/12/27 05:57:01;;;;;;;8.75;5.38;;;;;;;1.16;73.66;99317.06;5013911;28;20061;-81
2020/12/27 05:59:30;;;;;;;9.88;5.60;;;;;;;1.17;73.61;99317.91;5014377;28;20113;-79
2020/12/27 06:01:57;;;;;;;10.02;5.40;;;;;;;1.15;73.98;99315.34;5016973;28;20042;-81
2020/12/27 06:04:51;;;;;;;11.55;5.50;;;;;;;1.13;73.59;99311.91;5005745;28;20050;-78
2020/12/27 06:07:38;;;;;;;8.80;5.22;;;;;;;1.17;73.71;99302.28;4983791;28;20120;-77
2020/12/27 06:10:11;;;;;;;12.43;5.55;;;;;;;1.15;73.22;99289.28;4986621;28;20200;-78
2020/12/27 06:13:12;;;;;;;8.70;4.88;;;;;;;1.17;73.41;99286.63;4987605;28;20129;-78
2020/12/27 06:15:57;;;;;;;5.78;4.03;;;;;;;1.17;73.55;99258.81;4992940;28;20146;-77
2020/12/27 06:18:37;;;;;;;12.93;5.47;;;;;;;1.16;73.36;99248.41;4994657;28;20054;-76
2020/12/27 06:21:10;;;;;;;8.07;4.85;;;;;;;1.12;73.35;99244.16;4986299;28;20484;-78
2020/12/27 06:23:38;;;;;;;10.30;5.10;;;;;;;1.09;72.81;99239.06;4990147;28;20524;-76
2020/12/27 06:26:06;;;;;;;11.73;5.15;;;;;;;1.05;72.64;99240.88;4989730;28;20137;-78
2020/12/27 06:28:34;;;;;;;11.48;5.72;;;;;;;1.08;73.05;99224.31;4997279;28;20073;-79
2020/12/27 06:31:07;;;;;;;13.77;6.82;;;;;;;1.16;73.24;99225.81;4991924;28;20122;-78
2020/12/27 06:33:39;;;;;;;10.00;5.35;;;;;;;1.14;72.88;99218.91;4984574;28;20125;-78
2020/12/27 06:36:06;;;;;;;11.00;5.70;;;;;;;1.12;73.36;99210.28;4995247;28;20046;-78
2020/12/27 06:38:39;;;;;;;11.45;5.43;;;;;;;1.12;73.46;99205.06;4992937;28;20050;-80
2020/12/27 06:41:07;;;;;;;8.73;5.72;;;;;;;1.13;73.31;99206.78;4991165;28;20515;-79
2020/12/27 06:43:45;;;;;;;10.57;5.60;;;;;;;1.10;73.62;99196.47;4990049;28;20055;-78
2020/12/27 06:46:28;;;;;;;9.32;5.82;;;;;;;1.11;73.71;99182.50;4990173;28;20047;-80
2020/12/27 06:49:09;;;;;;;11.70;5.78;;;;;;;1.13;73.58;99178.09;4990681;28;20448;-77
2020/12/27 06:51:43;;;;;;;13.25;6.70;;;;;;;1.12;73.65;99171.16;4996434;28;20054;-77
2020/12/27 06:54:10;;;;;;;8.55;5.72;;;;;;;1.11;74.09;99169.47;4990925;28;20048;-76
2020/12/27 06:56:45;;;;;;;10.43;6.10;;;;;;;1.10;74.43;99160.81;4990390;28;20552;-79
2020/12/27 06:59:12;;;;;;;10.52;5.60;;;;;;;1.13;74.21;99165.06;4991227;28;20165;-78
2020/12/27 07:01:39;;;;;;;10.82;5.95;;;;;;;1.12;74.04;99161.59;4991490;28;20074;-78
2020/12/27 07:04:17;;;;;;;12.85;6.70;;;;;;;1.13;73.97;99165.91;4996028;28;20050;-79
2020/12/27 07:06:47;;;;;;;10.43;6.00;;;;;;;1.18;74.30;99157.97;4987807;28;20523;-79
2020/12/27 07:09:26;;;;;;;9.68;5.45;;;;;;;1.18;74.52;99147.53;5009381;28;20042;-78
2020/12/27 07:12:06;;;;;;;10.30;6.75;;;;;;;1.21;73.75;99137.88;5015622;28;20046;-79
2020/12/27 07:14:42;;;;;;;11.60;5.72;;;;;;;1.24;73.87;99131.72;5017178;28;20113;-77
2020/12/27 07:17:10;;;;;;;8.90;5.63;;;;;;;1.21;73.80;99124.00;4987625;28;20462;-77
2020/12/27 07:19:38;;;;;;;10.45;5.63;;;;;;;1.17;74.21;99102.38;4987258;28;20289;-78
2020/12/27 07:22:06;;;;;;;9.75;5.97;;;;;;;1.18;73.95;99100.59;4995233;28;20046;-77
2020/12/27 07:24:35;;;;;;;9.88;5.53;;;;;;;1.24;73.90;99090.88;4980436;28;20059;-78
2020/12/27 07:27:04;;;;;;;10.32;5.40;;;;;;;1.25;73.63;99091.72;4980756;28;20137;-76
2020/12/27 07:29:31;;;;;;;8.73;5.43;;;;;;;1.20;73.59;99097.06;5014836;28;20041;-77
2020/12/27 07:31:58;;;;;;;10.82;5.13;;;;;;;1.17;73.90;99104.13;5000777;28;20058;-77
2020/12/27 07:34:28;;;;;;;9.27;4.93;;;;;;;1.15;73.69;99085.06;4996797;28;20057;-79
2020/12/27 07:37:05;;;;;;;9.60;5.32;;;;;;;1.08;74.21;99079.19;4986407;28;20046;-77
2020/12/27 07:40:01;;;;;;;11.40;5.20;;;;;;;1.08;73.83;99079.19;4986421;28;20394;-78
2020/12/27 07:42:32;;;;;;;11.15;5.00;;;;;;;1.01;73.91;99044.59;4974029;28;20065;-78
2020/12/27 07:45:01;;;;;;;11.40;5.28;;;;;;;1.13;73.94;99056.41;5004592;28;20129;-79
2020/12/27 07:47:29;;;;;;;9.95;4.68;;;;;;;1.13;73.18;99050.34;4991753;28;20713;-79
2020/12/27 07:50:11;;;;;;;9.15;5.18;;;;;;;1.16;73.60;99045.03;4989872;28;20113;-78
2020/12/27 07:52:58;;;;;;;7.75;4.90;;;;;;;1.12;73.21;99025.16;4990730;28;20062;-77
2020/12/27 07:55:39;;;;;;;7.68;4.20;;;;;;;1.22;73.25;99027.47;5002942;28;20042;-79
2020/12/27 07:58:06;;;;;;;;;;;;;;;1.24;72.81;99023.06;4991651;28;20046;-78
2020/12/27 08:00:37;;;;;;;5.63;4.03;;;;;;;1.22;72.46;98997.94;4981142;28;19932;-78
2020/12/27 08:03:04;;;;;;;;;;;;;;;1.21;72.90;98980.59;5000512;28;20064;-79
2020/12/27 08:05:30;;;;;;;6.70;3.97;;;;;;;1.20;73.04;98974.50;4989796;28;20013;-78
2020/12/27 08:08:07;;;;;;;7.13;4.20;;;;;;;1.25;72.85;98958.72;4994968;28;20049;-79
2020/12/27 08:10:34;;;;;;;7.40;4.38;;;;;;;1.28;72.93;98956.00;4998125;28;20061;-75
2020/12/27 08:13:02;;;;;;;9.80;4.50;;;;;;;1.27;72.97;98944.72;4994594;28;20062;-76
2020/12/27 08:15:35;;;;;;;7.40;4.35;;;;;;;1.29;72.26;98927.25;4989329;28;20489;-79
2020/12/27 08:18:07;;;;;;;7.40;4.20;;;;;;;1.34;72.45;98934.94;4986112;28;20122;-78
2020/12/27 08:20:44;;;;;;;6.07;3.85;;;;;;;1.39;72.08;98928.69;4990849;28;20050;-77
2020/12/27 08:23:11;;;;;;;7.65;4.35;;;;;;;1.42;72.04;98929.50;4990390;28;20129;-79
2020/12/27 08:25:38;;;;;;;5.43;3.78;;;;;;;1.42;71.37;98925.09;4982302;28;20121;-77
2020/12/27 08:28:08;;;;;;;5.93;4.03;;;;;;;1.43;72.00;98913.75;4996387;28;20089;-76
2020/12/27 08:30:35;;;;;;;6.05;3.78;;;;;;;1.54;71.47;98901.22;4991098;28;20054;-79
2020/12/27 08:33:08;;;;;;;4.40;3.63;;;;;;;1.55;71.98;98894.25;4987641;28;20047;-78
2020/12/27 08:35:36;;;;;;;7.53;3.25;;;;;;;1.60;70.91;98893.16;4990161;28;20062;-80
2020/12/27 08:38:29;;;;;;;9.68;3.60;;;;;;;1.63;71.03;98892.22;4991791;28;20581;-77
2020/12/27 08:41:08;;;;;;;5.00;3.33;;;;;;;1.64;70.58;98879.13;4982535;28;20057;-78
2020/12/27 08:44:03;;;;;;;5.78;3.20;;;;;;;1.71;70.93;98891.06;5000295;28;20103;-79
2020/12/27 08:46:38;;;;;;;5.55;3.55;;;;;;;1.77;69.95;98884.75;5002702;28;20129;-78
2020/12/27 08:49:32;;;;;;;5.50;3.10;;;;;;;1.73;70.49;98875.34;4979526;28;20126;-79
2020/12/27 08:52:13;;;;;;;6.38;3.42;;;;;;;1.69;70.60;98869.38;4983011;28;20050;-79
2020/12/27 08:54:40;;;;;;;;;;;;;;;1.69;70.88;98864.16;4983484;28;20070;-77
2020/12/27 08:57:07;;;;;;;7.15;3.03;;;;;;;1.69;69.95;98851.13;4983816;28;19932;-76
2020/12/27 08:59:33;;;;;;;7.60;3.45;;;;;;;1.68;70.31;98853.78;4994505;28;20060;-78
2020/12/27 09:02:10;;;;;;;6.43;3.25;;;;;;;1.69;70.64;98845.06;4988954;28;20453;-76
2020/12/27 09:04:36;;;;;;;4.50;2.97;;;;;;;1.73;70.30;98834.41;4988051;28;20085;-77
2020/12/27 09:07:03;;;;;;;5.35;2.70;;;;;;;1.73;70.36;98831.81;4986414;28;20405;-77
2020/12/27 09:09:30;;;;;;;5.00;2.70;;;;;;;1.81;70.17;98825.47;4981568;28;20077;-77
2020/12/27 09:11:56;;;;;;;5.78;3.15;;;;;;;1.80;69.85;98808.97;4989822;28;20049;-79
2020/12/27 09:14:35;;;;;;;5.72;2.90;;;;;;;1.84;70.27;98804.50;4990094;28;20145;-79
2020/12/27 09:17:07;;;;;;;4.80;2.75;;;;;;;1.93;70.42;98804.13;4997577;28;20108;-79
2020/12/27 09:19:35;;;;;;;4.05;3.08;;;;;;;1.96;69.02;98785.75;5000000;28;20058;-77
2020/12/27 09:22:04;;;;;;;4.07;2.70;;;;;;;1.96;69.34;98767.50;5003725;28;20046;-77
2020/12/27 09:24:32;;;;;;;4.85;2.72;;;;;;;1.98;69.25;98766.53;4983200;28;20544;-79
2020/12/27 09:27:05;;;;;;;5.07;2.63;;;;;;;2.01;68.47;98749.91;4995334;28;20083;-81
2020/12/27 09:29:32;;;;;;;4.30;2.50;;;;;;;2.05;69.03;98738.41;4976790;28;20042;-78
2020/12/27 09:32:07;;;;;;;4.18;2.40;;;;;;;2.10;67.70;98739.09;4997994;28;20081;-78
2020/12/27 09:34:33;;;;;;;4.78;2.38;;;;;;;2.06;67.83;98740.97;4999436;28;20050;-78
2020/12/27 09:37:17;;;;;;;3.83;2.40;;;;;;;2.04;68.33;98723.69;4994038;28;20042;-78
2020/12/27 09:39:56;;;;;;;4.57;2.40;;;;;;;1.99;68.29;98725.59;4985994;28;20132;-80
2020/12/27 09:42:23;;;;;;;4.93;2.70;;;;;;;2.00;68.81;98722.09;4999132;28;20081;-77
2020/12/27 09:44:51;;;;;;;6.00;2.42;;;;;;;2.06;68.86;98724.44;5000627;28;20046;-78
2020/12/27 09:47:36;;;;;;;3.65;1.83;;;;;;;2.06;68.52;98721.81;5001532;28;20160;-77
2020/12/27 09:50:06;;;;;;;3.88;2.40;;;;;;;2.07;68.81;98723.53;4998427;28;20053;-78
2020/12/27 09:52:46;;;;;;;4.93;2.78;;;;;;;2.10;67.91;98707.75;4986328;28;20085;-77
2020/12/27 09:55:13;;;;;;;5.25;2.17;;;;;;;2.09;67.85;98709.50;4993449;28;20141;-79
2020/12/27 09:57:42;;;;;;;4.25;2.05;;;;;;;2.11;68.55;98694.63;4989636;28;20056;-77
2020/12/27 10:00:09;;;;;;;5.05;2.42;;;;;;;2.11;68.07;98705.09;4996035;28;20089;-77
2020/12/27 10:02:36;;;;;;;3.92;2.35;;;;;;;2.17;67.81;98695.31;5000413;28;20125;-76
2020/12/27 10:05:07;;;;;;;5.55;2.25;;;;;;;2.18;68.14;98671.75;5001083;28;20129;-78
2020/12/27 10:07:34;;;;;;;4.78;1.85;;;;;;;2.28;67.45;98664.38;4992029;28;20209;-78
2020/12/27 10:10:00;;;;;;;2.38;1.83;;;;;;;2.38;68.34;98670.91;5004230;28;20042;-80
2020/12/27 10:12:27;;;;;;;4.97;2.10;;;;;;;2.38;67.27;98657.84;5013318;28;20084;-79
2020/12/27 10:14:53;;;;;;;3.95;2.15;;;;;;;2.35;67.90;98645.81;5006227;28;20117;-82
2020/12/27 10:17:20;;;;;;;3.97;2.10;;;;;;;2.35;67.40;98640.56;5015393;28;20054;-78
2020/12/27 10:19:46;;;;;;;4.43;1.90;;;;;;;2.37;67.29;98622.19;4999966;28;20081;-78
2020/12/27 10:22:12;;;;;;;6.18;1.88;;;;;;;2.43;67.63;98614.97;4992866;28;20046;-77
2020/12/27 10:24:40;;;;;;;2.88;2.00;;;;;;;2.49;67.43;98610.41;4996237;28;20065;-76
2020/12/27 10:27:07;;;;;;;4.53;2.33;;;;;;;2.56;67.20;98604.84;4990614;28;20061;-78
2020/12/27 10:29:34;;;;;;;3.88;2.17;;;;;;;2.55;67.27;98600.53;5010057;28;20058;-79
2020/12/27 10:32:03;;;;;;;4.20;1.80;;;;;;;2.59;66.41;98589.03;5002633;28;20050;-79
2020/12/27 10:34:30;;;;;;;6.13;2.20;;;;;;;2.57;66.18;98587.38;5002627;28;20058;-78
2020/12/27 10:36:58;;;;;;;2.35;1.67;;;;;;;2.54;67.30;98579.69;5011438;28;20054;-82
2020/12/27 10:39:25;;;;;;;2.70;1.50;;;;;;;2.49;66.74;98568.59;5016729;28;20068;-79
2020/12/27 10:41:53;;;;;;;4.50;1.92;;;;;;;2.56;67.08;98562.19;5014479;28;20119;-77
2020/12/27 10:44:20;;;;;;;3.47;2.20;;;;;;;2.60;66.58;98555.91;5009013;28;20069;-78
2020/12/27 10:46:51;;;;;;;6.18;1.80;;;;;;;2.66;66.48;98555.66;5005290;28;20050;-76
2020/12/27 10:49:19;;;;;;;5.63;2.27;;;;;;;2.61;66.44;98542.78;5002387;28;20118;-81
2020/12/27 10:51:46;;;;;;;3.63;1.77;;;;;;;2.70;66.62;98520.59;5009652;28;20462;-82
2020/12/27 10:54:13;;;;;;;3.67;1.70;;;;;;;2.65;66.58;98517.38;4996809;28;20077;-81
2020/12/27 10:56:42;;;;;;;4.38;1.70;;;;;;;2.64;66.28;98507.84;5018897;28;20023;-79
2020/12/27 10:59:10;;;;;;;3.50;1.90;;;;;;;2.65;66.49;98501.69;4994316;28;20058;-77
2020/12/27 11:01:42;;;;;;;2.28;1.50;;;;;;;2.63;67.51;98491.31;4997162;28;20046;-77
2020/12/27 11:04:09;;;;;;;2.97;1.88;;;;;;;2.61;66.58;98480.06;4986579;28;20070;-77
2020/12/27 11:06:35;;;;;;;2.50;1.58;;;;;;;2.62;66.74;98476.53;4997273;28;20399;-77
2020/12/27 11:09:02;;;;;;;1.98;1.50;;;;;;;2.61;67.03;98467.00;4997101;28;20494;-77
2020/12/27 11:11:35;;;;;;;2.25;1.45;;;;;;;2.62;66.86;98454.78;4990950;28;20110;-79
2020/12/27 11:14:07;;;;;;;2.97;1.73;;;;;;;2.61;66.55;98442.63;4975771;28;20404;-79
2020/12/27 11:16:34;;;;;;;3.53;1.80;;;;;;;2.64;66.91;98442.50;4991704;28;20157;-78
2020/12/27 11:19:00;;;;;;;3.22;1.65;;;;;;;2.66;67.53;98444.13;4996054;28;20386;-78
2020/12/27 11:21:28;;;;;;;3.22;1.98;;;;;;;2.64;66.99;98426.81;4996849;28;20055;-79
2020/12/27 11:23:55;;;;;;;3.70;1.90;;;;;;;2.69;67.79;98409.16;5009064;28;20072;-77
2020/12/27 11:26:21;;;;;;;3.58;1.60;;;;;;;2.77;66.76;98407.03;4995684;28;20081;-77
2020/12/27 11:28:48;;;;;;;2.38;1.60;;;;;;;2.77;66.21;98402.66;5005693;28;20260;-79
2020/12/27 11:31:18;;;;;;;1.95;1.42;;;;;;;2.81;67.00;98388.53;4996427;28;20046;-79
2020/12/27 11:33:48;;;;;;;2.75;1.33;;;;;;;2.93;67.07;98387.09;5010494;28;20085;-79
2020/12/27 11:36:15;;;;;;;2.22;1.38;;;;;;;2.89;66.97;98377.69;5010209;28;20077;-79
2020/12/27 11:38:42;;;;;;;4.20;1.70;;;;;;;2.86;66.28;98371.75;5000204;28;20054;-78
2020/12/27 11:41:14;;;;;;;3.92;1.45;;;;;;;2.85;67.35;98363.06;4988181;28;20070;-79
2020/12/27 11:43:42;;;;;;;3.38;1.48;;;;;;;2.85;67.25;98343.91;4997579;28;20046;-79
2020/12/27 11:46:09;;;;;;;3.53;1.60;;;;;;;2.85;66.92;98347.38;5007019;28;20050;-78
2020/12/27 11:48:36;;;;;;;2.13;1.50;;;;;;;2.91;66.89;98339.25;5006258;28;20057;-77
2020/12/27 11:51:03;;;;;;;2.08;1.42;;;;;;;2.93;66.90;98329.56;4995217;28;20058;-78
2020/12/27 11:53:30;;;;;;;3.35;1.80;;;;;;;2.94;66.90;98330.44;4999885;28;20145;-79